sensor_id;sensor_type;location;lat;lon;timestamp;temperature;humidity
3528;DHT22;1778;47.966;7.854;2022-11-03T00:00:46;8.00;99.90
3528;DHT22;1778;47.966;7.854;2022-11-03T00:01:48;8.00;99.90
3528;DHT22;1778;47.966;7.854;2022-11-03T00:02:53;8.00;99.90
3528;DHT22;1778;47.966;7.854;2022-11-03T00:03:55;7.90;99.90
3528;DHT22;1778;47.966;7.854;2022-11-03T00:04:56;7.90;99.90
3528;DHT22;1778;47.966;7.854;2022-11-03T00:05:57;7.90;99.90
3528;DHT22;1778;47.966;7.854;2022-11-03T00:07:05;7.90;99.90
3528;DHT22;1778;47.966;7.854;2022-11-03T00:08:06;7.80;99.90
3528;DHT22;1778;47.966;7.854;2022-11-03T00:09:10;7.80;99.90
3528;DHT22;1778;47.966;7.854;2022-11-03T00:10:11;7.80;99.90
3528;DHT22;1778;47.966;7.854;2022-11-03T00:11:13;7.80;99.90
3528;DHT22;1778;47.966;7.854;2022-11-03T00:12:15;7.80;99.90
3528;DHT22;1778;47.966;7.854;2022-11-03T00:13:16;7.80;99.90
3528;DHT22;1778;47.966;7.854;2022-11-03T00:14:19;7.80;99.90
3528;DHT22;1778;47.966;7.854;2022-11-03T00:15:20;7.70;99.90
3528;DHT22;1778;47.966;7.854;2022-11-03T00:16:22;7.80;99.90
3528;DHT22;1778;47.966;7.854;2022-11-03T00:17:23;7.90;99.90
3528;DHT22;1778;47.966;7.854;2022-11-03T00:18:25;7.90;99.90
3528;DHT22;1778;47.966;7.854;2022-11-03T00:19:26;7.90;99.90
3528;DHT22;1778;47.966;7.854;2022-11-03T00:20:28;7.90;99.90
3528;DHT22;1778;47.966;7.854;2022-11-03T00:21:29;7.80;99.90
3528;DHT22;1778;47.966;7.854;2022-11-03T00:22:31;7.80;99.90
3528;DHT22;1778;47.966;7.854;2022-11-03T00:23:36;7.90;99.90
3528;DHT22;1778;47.966;7.854;2022-11-03T00:24:38;8.00;99.90
3528;DHT22;1778;47.966;7.854;2022-11-03T00:25:39;7.90;99.90
3528;DHT22;1778;47.966;7.854;2022-11-03T00:26:41;7.90;99.90
3528;DHT22;1778;47.966;7.854;2022-11-03T00:27:42;7.90;99.90
3528;DHT22;1778;47.966;7.854;2022-11-03T00:28:45;7.80;99.90
3528;DHT22;1778;47.966;7.854;2022-11-03T00:29:46;7.80;99.90
3528;DHT22;1778;47.966;7.854;2022-11-03T00:30:48;7.80;99.90
3528;DHT22;1778;47.966;7.854;2022-11-03T00:31:49;7.80;99.90
3528;DHT22;1778;47.966;7.854;2022-11-03T00:32:51;7.90;99.90
3528;DHT22;1778;47.966;7.854;2022-11-03T00:33:53;7.80;99.90
3528;DHT22;1778;47.966;7.854;2022-11-03T00:34:54;7.80;99.90
3528;DHT22;1778;47.966;7.854;2022-11-03T00:35:57;7.90;99.90
3528;DHT22;1778;47.966;7.854;2022-11-03T00:36:59;7.90;99.90
3528;DHT22;1778;47.966;7.854;2022-11-03T00:38:00;7.90;99.90
3528;DHT22;1778;47.966;7.854;2022-11-03T00:39:03;7.90;99.90
3528;DHT22;1778;47.966;7.854;2022-11-03T00:40:05;7.80;99.90
3528;DHT22;1778;47.966;7.854;2022-11-03T00:41:07;7.80;99.90
3528;DHT22;1778;47.966;7.854;2022-11-03T00:42:08;7.80;99.90
3528;DHT22;1778;47.966;7.854;2022-11-03T00:43:10;7.80;99.90
3528;DHT22;1778;47.966;7.854;2022-11-03T00:44:12;7.80;99.90
3528;DHT22;1778;47.966;7.854;2022-11-03T00:45:14;7.80;99.90
3528;DHT22;1778;47.966;7.854;2022-11-03T00:46:16;7.80;99.90
3528;DHT22;1778;47.966;7.854;2022-11-03T00:47:18;7.70;99.90
3528;DHT22;1778;47.966;7.854;2022-11-03T00:48:24;7.80;99.90
3528;DHT22;1778;47.966;7.854;2022-11-03T00:49:34;7.80;99.90
3528;DHT22;1778;47.966;7.854;2022-11-03T00:50:36;7.80;99.90
3528;DHT22;1778;47.966;7.854;2022-11-03T00:51:37;7.70;99.90
3528;DHT22;1778;47.966;7.854;2022-11-03T00:52:39;7.80;99.90
3528;DHT22;1778;47.966;7.854;2022-11-03T00:53:45;7.80;99.90
3528;DHT22;1778;47.966;7.854;2022-11-03T00:54:46;7.70;99.90
3528;DHT22;1778;47.966;7.854;2022-11-03T00:55:55;7.80;99.90
3528;DHT22;1778;47.966;7.854;2022-11-03T00:56:57;7.70;99.90
3528;DHT22;1778;47.966;7.854;2022-11-03T00:57:58;7.70;99.90
3528;DHT22;1778;47.966;7.854;2022-11-03T00:59:00;7.70;99.90
3528;DHT22;1778;47.966;7.854;2022-11-03T01:00:03;7.70;99.90
3528;DHT22;1778;47.966;7.854;2022-11-03T01:01:17;7.70;99.90
3528;DHT22;1778;47.966;7.854;2022-11-03T01:02:18;7.70;99.90
3528;DHT22;1778;47.966;7.854;2022-11-03T01:03:20;7.70;99.90
3528;DHT22;1778;47.966;7.854;2022-11-03T01:04:21;7.70;99.90
3528;DHT22;1778;47.966;7.854;2022-11-03T01:05:43;7.70;99.90
3528;DHT22;1778;47.966;7.854;2022-11-03T01:07:04;7.70;99.90
3528;DHT22;1778;47.966;7.854;2022-11-03T01:08:06;7.80;99.90
3528;DHT22;1778;47.966;7.854;2022-11-03T01:09:07;7.70;99.90
3528;DHT22;1778;47.966;7.854;2022-11-03T01:10:09;7.70;99.90
3528;DHT22;1778;47.966;7.854;2022-11-03T01:11:15;7.60;99.90
3528;DHT22;1778;47.966;7.854;2022-11-03T01:12:36;7.70;99.90
3528;DHT22;1778;47.966;7.854;2022-11-03T01:13:37;7.70;99.90
3528;DHT22;1778;47.966;7.854;2022-11-03T01:14:47;7.70;99.90
3528;DHT22;1778;47.966;7.854;2022-11-03T01:15:48;7.70;99.90
3528;DHT22;1778;47.966;7.854;2022-11-03T01:16:50;7.70;99.90
3528;DHT22;1778;47.966;7.854;2022-11-03T01:17:51;7.70;99.90
3528;DHT22;1778;47.966;7.854;2022-11-03T01:18:53;7.70;99.90
3528;DHT22;1778;47.966;7.854;2022-11-03T01:19:55;7.70;99.90
3528;DHT22;1778;47.966;7.854;2022-11-03T01:20:56;7.70;99.90
3528;DHT22;1778;47.966;7.854;2022-11-03T01:21:58;7.60;99.90
3528;DHT22;1778;47.966;7.854;2022-11-03T01:22:59;7.70;99.90
3528;DHT22;1778;47.966;7.854;2022-11-03T01:24:02;7.70;99.90
3528;DHT22;1778;47.966;7.854;2022-11-03T01:25:04;7.70;99.90
3528;DHT22;1778;47.966;7.854;2022-11-03T01:26:07;7.70;99.90
3528;DHT22;1778;47.966;7.854;2022-11-03T01:27:11;7.70;99.90
3528;DHT22;1778;47.966;7.854;2022-11-03T01:28:15;7.70;99.90
3528;DHT22;1778;47.966;7.854;2022-11-03T01:29:17;7.70;99.90
3528;DHT22;1778;47.966;7.854;2022-11-03T01:30:18;7.70;99.90
3528;DHT22;1778;47.966;7.854;2022-11-03T01:31:22;7.70;99.90
3528;DHT22;1778;47.966;7.854;2022-11-03T01:32:24;7.70;99.90
3528;DHT22;1778;47.966;7.854;2022-11-03T01:33:26;7.70;99.90
3528;DHT22;1778;47.966;7.854;2022-11-03T01:34:27;7.70;99.90
3528;DHT22;1778;47.966;7.854;2022-11-03T01:35:29;7.60;99.90
3528;DHT22;1778;47.966;7.854;2022-11-03T01:36:31;7.60;99.90
3528;DHT22;1778;47.966;7.854;2022-11-03T01:37:32;7.70;99.90
3528;DHT22;1778;47.966;7.854;2022-11-03T01:38:35;7.70;99.90
3528;DHT22;1778;47.966;7.854;2022-11-03T01:39:36;7.70;99.90
3528;DHT22;1778;47.966;7.854;2022-11-03T01:40:38;7.70;99.90
3528;DHT22;1778;47.966;7.854;2022-11-03T01:41:40;7.70;99.90
3528;DHT22;1778;47.966;7.854;2022-11-03T01:42:42;7.70;99.90
3528;DHT22;1778;47.966;7.854;2022-11-03T01:43:45;7.60;99.90
3528;DHT22;1778;47.966;7.854;2022-11-03T01:44:47;7.70;99.90
3528;DHT22;1778;47.966;7.854;2022-11-03T01:46:14;7.70;99.90
3528;DHT22;1778;47.966;7.854;2022-11-03T01:47:33;7.70;99.90
3528;DHT22;1778;47.966;7.854;2022-11-03T01:48:40;7.70;99.90
3528;DHT22;1778;47.966;7.854;2022-11-03T01:49:51;7.70;99.90
3528;DHT22;1778;47.966;7.854;2022-11-03T01:50:55;7.70;99.90
3528;DHT22;1778;47.966;7.854;2022-11-03T01:53:25;7.70;99.90
3528;DHT22;1778;47.966;7.854;2022-11-03T01:54:29;7.60;99.90
3528;DHT22;1778;47.966;7.854;2022-11-03T01:55:35;7.70;99.90
3528;DHT22;1778;47.966;7.854;2022-11-03T01:56:42;7.60;99.90
3528;DHT22;1778;47.966;7.854;2022-11-03T01:57:54;7.70;99.90
3528;DHT22;1778;47.966;7.854;2022-11-03T01:58:58;7.70;99.90
3528;DHT22;1778;47.966;7.854;2022-11-03T02:00:00;7.60;99.90
3528;DHT22;1778;47.966;7.854;2022-11-03T02:01:12;7.70;99.90
3528;DHT22;1778;47.966;7.854;2022-11-03T02:02:14;7.70;99.90
3528;DHT22;1778;47.966;7.854;2022-11-03T02:03:16;7.80;99.90
3528;DHT22;1778;47.966;7.854;2022-11-03T02:04:27;7.80;99.90
3528;DHT22;1778;47.966;7.854;2022-11-03T02:05:30;7.70;99.90
3528;DHT22;1778;47.966;7.854;2022-11-03T02:06:31;7.70;99.90
3528;DHT22;1778;47.966;7.854;2022-11-03T02:07:37;7.70;99.90
3528;DHT22;1778;47.966;7.854;2022-11-03T02:08:58;7.80;99.90
3528;DHT22;1778;47.966;7.854;2022-11-03T02:10:02;7.70;99.90
3528;DHT22;1778;47.966;7.854;2022-11-03T02:11:03;7.70;99.90
3528;DHT22;1778;47.966;7.854;2022-11-03T02:12:26;7.70;99.90
3528;DHT22;1778;47.966;7.854;2022-11-03T02:13:27;7.70;99.90
3528;DHT22;1778;47.966;7.854;2022-11-03T02:14:29;7.70;99.90
3528;DHT22;1778;47.966;7.854;2022-11-03T02:15:31;7.70;99.90
3528;DHT22;1778;47.966;7.854;2022-11-03T02:16:33;7.80;99.90
3528;DHT22;1778;47.966;7.854;2022-11-03T02:17:36;7.80;99.90
3528;DHT22;1778;47.966;7.854;2022-11-03T02:18:39;7.90;99.90
3528;DHT22;1778;47.966;7.854;2022-11-03T02:19:46;7.80;99.90
3528;DHT22;1778;47.966;7.854;2022-11-03T02:21:41;7.80;99.90
3528;DHT22;1778;47.966;7.854;2022-11-03T02:24:01;7.80;99.90
3528;DHT22;1778;47.966;7.854;2022-11-03T02:26:28;7.80;99.90
3528;DHT22;1778;47.966;7.854;2022-11-03T02:27:30;7.80;99.90
3528;DHT22;1778;47.966;7.854;2022-11-03T02:28:32;7.80;99.90
3528;DHT22;1778;47.966;7.854;2022-11-03T02:29:34;7.80;99.90
3528;DHT22;1778;47.966;7.854;2022-11-03T02:32:04;7.80;99.90
3528;DHT22;1778;47.966;7.854;2022-11-03T02:33:19;7.80;99.90
3528;DHT22;1778;47.966;7.854;2022-11-03T02:34:36;7.80;99.90
3528;DHT22;1778;47.966;7.854;2022-11-03T02:35:50;7.80;99.90
3528;DHT22;1778;47.966;7.854;2022-11-03T02:36:55;7.80;99.90
3528;DHT22;1778;47.966;7.854;2022-11-03T02:38:01;7.80;99.90
3528;DHT22;1778;47.966;7.854;2022-11-03T02:40:13;7.80;99.90
3528;DHT22;1778;47.966;7.854;2022-11-03T02:41:17;7.80;99.90
3528;DHT22;1778;47.966;7.854;2022-11-03T02:42:20;7.80;99.90
3528;DHT22;1778;47.966;7.854;2022-11-03T02:43:24;7.70;99.90
3528;DHT22;1778;47.966;7.854;2022-11-03T02:44:27;7.70;99.90
3528;DHT22;1778;47.966;7.854;2022-11-03T02:45:29;7.70;99.90
3528;DHT22;1778;47.966;7.854;2022-11-03T02:46:31;7.70;99.90
3528;DHT22;1778;47.966;7.854;2022-11-03T02:47:36;7.70;99.90
3528;DHT22;1778;47.966;7.854;2022-11-03T02:48:38;7.70;99.90
3528;DHT22;1778;47.966;7.854;2022-11-03T02:49:52;7.70;99.90
3528;DHT22;1778;47.966;7.854;2022-11-03T02:50:53;7.70;99.90
3528;DHT22;1778;47.966;7.854;2022-11-03T02:52:03;7.70;99.90
3528;DHT22;1778;47.966;7.854;2022-11-03T02:53:05;7.70;99.90
3528;DHT22;1778;47.966;7.854;2022-11-03T02:54:28;7.70;99.90
3528;DHT22;1778;47.966;7.854;2022-11-03T02:55:38;7.70;99.90
3528;DHT22;1778;47.966;7.854;2022-11-03T02:56:52;7.70;99.90
3528;DHT22;1778;47.966;7.854;2022-11-03T02:59:26;7.70;99.90
3528;DHT22;1778;47.966;7.854;2022-11-03T03:00:33;7.70;99.90
3528;DHT22;1778;47.966;7.854;2022-11-03T03:01:42;7.70;99.90
3528;DHT22;1778;47.966;7.854;2022-11-03T03:02:58;7.70;99.90
3528;DHT22;1778;47.966;7.854;2022-11-03T03:04:06;7.80;99.90
3528;DHT22;1778;47.966;7.854;2022-11-03T03:05:10;7.80;99.90
3528;DHT22;1778;47.966;7.854;2022-11-03T03:06:27;7.80;99.90
3528;DHT22;1778;47.966;7.854;2022-11-03T03:07:33;7.80;99.90
3528;DHT22;1778;47.966;7.854;2022-11-03T03:08:39;7.80;99.90
3528;DHT22;1778;47.966;7.854;2022-11-03T03:09:47;7.80;99.90
3528;DHT22;1778;47.966;7.854;2022-11-03T03:10:49;7.80;99.90
3528;DHT22;1778;47.966;7.854;2022-11-03T03:11:53;7.70;99.90
3528;DHT22;1778;47.966;7.854;2022-11-03T03:12:56;7.80;99.90
3528;DHT22;1778;47.966;7.854;2022-11-03T03:13:58;7.80;99.90
3528;DHT22;1778;47.966;7.854;2022-11-03T03:15:01;7.80;99.90
3528;DHT22;1778;47.966;7.854;2022-11-03T03:16:25;7.70;99.90
3528;DHT22;1778;47.966;7.854;2022-11-03T03:17:35;7.80;99.90
3528;DHT22;1778;47.966;7.854;2022-11-03T03:18:49;7.80;99.90
3528;DHT22;1778;47.966;7.854;2022-11-03T03:21:14;7.70;99.90
3528;DHT22;1778;47.966;7.854;2022-11-03T03:24:15;7.70;99.90
3528;DHT22;1778;47.966;7.854;2022-11-03T03:25:31;7.70;99.90
3528;DHT22;1778;47.966;7.854;2022-11-03T03:26:38;7.70;99.90
3528;DHT22;1778;47.966;7.854;2022-11-03T03:27:46;7.60;99.90
3528;DHT22;1778;47.966;7.854;2022-11-03T03:28:56;7.60;99.90
3528;DHT22;1778;47.966;7.854;2022-11-03T03:30:02;7.70;99.90
3528;DHT22;1778;47.966;7.854;2022-11-03T03:31:08;7.70;99.90
3528;DHT22;1778;47.966;7.854;2022-11-03T03:32:12;7.70;99.90
3528;DHT22;1778;47.966;7.854;2022-11-03T03:33:16;7.60;99.90
3528;DHT22;1778;47.966;7.854;2022-11-03T03:34:19;7.70;99.90
3528;DHT22;1778;47.966;7.854;2022-11-03T03:35:37;7.70;99.90
3528;DHT22;1778;47.966;7.854;2022-11-03T03:36:41;7.70;99.90
3528;DHT22;1778;47.966;7.854;2022-11-03T03:37:47;7.70;99.90
3528;DHT22;1778;47.966;7.854;2022-11-03T03:38:54;7.70;99.90
3528;DHT22;1778;47.966;7.854;2022-11-03T03:39:59;7.70;99.90
3528;DHT22;1778;47.966;7.854;2022-11-03T03:41:03;7.80;99.90
3528;DHT22;1778;47.966;7.854;2022-11-03T03:42:11;7.80;99.90
3528;DHT22;1778;47.966;7.854;2022-11-03T03:43:15;7.80;99.90
3528;DHT22;1778;47.966;7.854;2022-11-03T03:44:17;7.80;99.90
3528;DHT22;1778;47.966;7.854;2022-11-03T03:45:20;7.80;99.90
3528;DHT22;1778;47.966;7.854;2022-11-03T03:46:23;7.80;99.90
3528;DHT22;1778;47.966;7.854;2022-11-03T03:47:29;7.80;99.90
3528;DHT22;1778;47.966;7.854;2022-11-03T03:48:31;7.80;99.90
3528;DHT22;1778;47.966;7.854;2022-11-03T03:49:32;7.70;99.90
3528;DHT22;1778;47.966;7.854;2022-11-03T03:50:36;7.70;99.90
3528;DHT22;1778;47.966;7.854;2022-11-03T03:51:40;7.80;99.90
3528;DHT22;1778;47.966;7.854;2022-11-03T03:52:41;7.80;99.90
3528;DHT22;1778;47.966;7.854;2022-11-03T03:53:43;7.80;99.90
3528;DHT22;1778;47.966;7.854;2022-11-03T03:54:45;7.80;99.90
3528;DHT22;1778;47.966;7.854;2022-11-03T03:55:51;7.80;99.90
3528;DHT22;1778;47.966;7.854;2022-11-03T03:56:59;7.80;99.90
3528;DHT22;1778;47.966;7.854;2022-11-03T03:58:03;7.80;99.90
3528;DHT22;1778;47.966;7.854;2022-11-03T03:59:06;7.80;99.90
3528;DHT22;1778;47.966;7.854;2022-11-03T04:00:13;7.80;99.90
3528;DHT22;1778;47.966;7.854;2022-11-03T04:01:16;7.80;99.90
3528;DHT22;1778;47.966;7.854;2022-11-03T04:02:18;7.80;99.90
3528;DHT22;1778;47.966;7.854;2022-11-03T04:03:23;7.80;99.90
3528;DHT22;1778;47.966;7.854;2022-11-03T04:04:24;7.80;99.90
3528;DHT22;1778;47.966;7.854;2022-11-03T04:05:26;7.80;99.90
3528;DHT22;1778;47.966;7.854;2022-11-03T04:06:27;7.80;99.90
3528;DHT22;1778;47.966;7.854;2022-11-03T04:07:29;7.80;99.90
3528;DHT22;1778;47.966;7.854;2022-11-03T04:08:48;7.80;99.90
3528;DHT22;1778;47.966;7.854;2022-11-03T04:09:50;7.80;99.90
3528;DHT22;1778;47.966;7.854;2022-11-03T04:10:51;7.80;99.90
3528;DHT22;1778;47.966;7.854;2022-11-03T04:12:12;7.80;99.90
3528;DHT22;1778;47.966;7.854;2022-11-03T04:13:55;7.80;99.90
3528;DHT22;1778;47.966;7.854;2022-11-03T04:15:15;7.80;99.90
3528;DHT22;1778;47.966;7.854;2022-11-03T04:16:35;7.80;99.90
3528;DHT22;1778;47.966;7.854;2022-11-03T04:17:55;7.80;99.90
3528;DHT22;1778;47.966;7.854;2022-11-03T04:19:15;7.90;99.90
3528;DHT22;1778;47.966;7.854;2022-11-03T04:20:35;7.80;99.90
3528;DHT22;1778;47.966;7.854;2022-11-03T04:21:56;7.90;99.90
3528;DHT22;1778;47.966;7.854;2022-11-03T04:23:17;7.80;99.90
3528;DHT22;1778;47.966;7.854;2022-11-03T04:24:19;7.70;99.90
3528;DHT22;1778;47.966;7.854;2022-11-03T04:25:20;7.70;99.90
3528;DHT22;1778;47.966;7.854;2022-11-03T04:26:22;7.70;99.90
3528;DHT22;1778;47.966;7.854;2022-11-03T04:28:32;7.70;99.90
3528;DHT22;1778;47.966;7.854;2022-11-03T04:29:34;7.70;99.90
3528;DHT22;1778;47.966;7.854;2022-11-03T04:30:35;7.80;99.90
3528;DHT22;1778;47.966;7.854;2022-11-03T04:31:37;7.80;99.90
3528;DHT22;1778;47.966;7.854;2022-11-03T04:32:39;7.80;99.90
3528;DHT22;1778;47.966;7.854;2022-11-03T04:33:40;7.80;99.90
3528;DHT22;1778;47.966;7.854;2022-11-03T04:34:45;7.80;99.90
3528;DHT22;1778;47.966;7.854;2022-11-03T04:35:47;7.80;99.90
3528;DHT22;1778;47.966;7.854;2022-11-03T04:36:50;7.80;99.90
3528;DHT22;1778;47.966;7.854;2022-11-03T04:39:29;7.80;99.90
3528;DHT22;1778;47.966;7.854;2022-11-03T04:40:31;7.80;99.90
3528;DHT22;1778;47.966;7.854;2022-11-03T04:41:33;7.80;99.90
3528;DHT22;1778;47.966;7.854;2022-11-03T04:42:35;7.70;99.90
3528;DHT22;1778;47.966;7.854;2022-11-03T04:43:37;7.80;99.90
3528;DHT22;1778;47.966;7.854;2022-11-03T04:44:39;7.70;99.90
3528;DHT22;1778;47.966;7.854;2022-11-03T04:45:43;7.80;99.90
3528;DHT22;1778;47.966;7.854;2022-11-03T04:46:45;7.70;99.90
3528;DHT22;1778;47.966;7.854;2022-11-03T04:47:47;7.70;99.90
3528;DHT22;1778;47.966;7.854;2022-11-03T04:48:48;7.70;99.90
3528;DHT22;1778;47.966;7.854;2022-11-03T04:49:50;7.70;99.90
3528;DHT22;1778;47.966;7.854;2022-11-03T04:51:10;7.70;99.90
3528;DHT22;1778;47.966;7.854;2022-11-03T04:52:20;7.70;99.90
3528;DHT22;1778;47.966;7.854;2022-11-03T04:53:22;7.70;99.90
3528;DHT22;1778;47.966;7.854;2022-11-03T04:54:24;7.70;99.90
3528;DHT22;1778;47.966;7.854;2022-11-03T04:55:26;7.70;99.90
3528;DHT22;1778;47.966;7.854;2022-11-03T04:56:28;7.70;99.90
3528;DHT22;1778;47.966;7.854;2022-11-03T04:57:30;7.70;99.90
3528;DHT22;1778;47.966;7.854;2022-11-03T04:58:34;7.70;99.90
3528;DHT22;1778;47.966;7.854;2022-11-03T04:59:35;7.70;99.90
3528;DHT22;1778;47.966;7.854;2022-11-03T05:00:38;7.70;99.90
3528;DHT22;1778;47.966;7.854;2022-11-03T05:01:40;7.80;99.90
3528;DHT22;1778;47.966;7.854;2022-11-03T05:02:47;7.80;99.90
3528;DHT22;1778;47.966;7.854;2022-11-03T05:03:55;7.70;99.90
3528;DHT22;1778;47.966;7.854;2022-11-03T05:04:56;7.70;99.90
3528;DHT22;1778;47.966;7.854;2022-11-03T05:06:10;7.70;99.90
3528;DHT22;1778;47.966;7.854;2022-11-03T05:07:32;7.70;99.90
3528;DHT22;1778;47.966;7.854;2022-11-03T05:08:35;7.80;99.90
3528;DHT22;1778;47.966;7.854;2022-11-03T05:09:37;7.80;99.90
3528;DHT22;1778;47.966;7.854;2022-11-03T05:10:43;7.80;99.90
3528;DHT22;1778;47.966;7.854;2022-11-03T05:11:45;7.80;99.90
3528;DHT22;1778;47.966;7.854;2022-11-03T05:12:48;7.80;99.90
3528;DHT22;1778;47.966;7.854;2022-11-03T05:13:51;7.80;99.90
3528;DHT22;1778;47.966;7.854;2022-11-03T05:14:52;7.80;99.90
3528;DHT22;1778;47.966;7.854;2022-11-03T05:16:03;7.80;99.90
3528;DHT22;1778;47.966;7.854;2022-11-03T05:17:21;7.70;99.90
3528;DHT22;1778;47.966;7.854;2022-11-03T05:18:28;7.70;99.90
3528;DHT22;1778;47.966;7.854;2022-11-03T05:19:38;7.70;99.90
3528;DHT22;1778;47.966;7.854;2022-11-03T05:21:22;7.70;99.90
3528;DHT22;1778;47.966;7.854;2022-11-03T05:22:32;7.70;99.90
3528;DHT22;1778;47.966;7.854;2022-11-03T05:23:39;7.70;99.90
3528;DHT22;1778;47.966;7.854;2022-11-03T05:24:41;7.70;99.90
3528;DHT22;1778;47.966;7.854;2022-11-03T05:25:45;7.70;99.90
3528;DHT22;1778;47.966;7.854;2022-11-03T05:26:48;7.70;99.90
3528;DHT22;1778;47.966;7.854;2022-11-03T05:27:50;7.70;99.90
3528;DHT22;1778;47.966;7.854;2022-11-03T05:28:54;7.70;99.90
3528;DHT22;1778;47.966;7.854;2022-11-03T05:30:00;7.70;99.90
3528;DHT22;1778;47.966;7.854;2022-11-03T05:31:19;7.70;99.90
3528;DHT22;1778;47.966;7.854;2022-11-03T05:32:24;7.70;99.90
3528;DHT22;1778;47.966;7.854;2022-11-03T05:33:34;7.60;99.90
3528;DHT22;1778;47.966;7.854;2022-11-03T05:34:44;7.60;99.90
3528;DHT22;1778;47.966;7.854;2022-11-03T05:35:46;7.60;99.90
3528;DHT22;1778;47.966;7.854;2022-11-03T05:36:48;7.60;99.90
3528;DHT22;1778;47.966;7.854;2022-11-03T05:37:50;7.60;99.90
3528;DHT22;1778;47.966;7.854;2022-11-03T05:38:54;7.60;99.90
3528;DHT22;1778;47.966;7.854;2022-11-03T05:40:14;7.60;99.90
3528;DHT22;1778;47.966;7.854;2022-11-03T05:41:25;7.60;99.90
3528;DHT22;1778;47.966;7.854;2022-11-03T05:42:32;7.60;99.90
3528;DHT22;1778;47.966;7.854;2022-11-03T05:43:34;7.60;99.90
3528;DHT22;1778;47.966;7.854;2022-11-03T05:44:38;7.60;99.90
3528;DHT22;1778;47.966;7.854;2022-11-03T05:45:41;7.60;99.90
3528;DHT22;1778;47.966;7.854;2022-11-03T05:46:42;7.60;99.90
3528;DHT22;1778;47.966;7.854;2022-11-03T05:47:45;7.60;99.90
3528;DHT22;1778;47.966;7.854;2022-11-03T05:48:46;7.60;99.90
3528;DHT22;1778;47.966;7.854;2022-11-03T05:49:53;7.60;99.90
3528;DHT22;1778;47.966;7.854;2022-11-03T05:50:56;7.60;99.90
3528;DHT22;1778;47.966;7.854;2022-11-03T05:52:00;7.60;99.90
3528;DHT22;1778;47.966;7.854;2022-11-03T05:53:30;7.60;99.90
3528;DHT22;1778;47.966;7.854;2022-11-03T05:54:33;7.60;99.90
3528;DHT22;1778;47.966;7.854;2022-11-03T05:55:36;7.60;99.90
3528;DHT22;1778;47.966;7.854;2022-11-03T05:56:37;7.60;99.90
3528;DHT22;1778;47.966;7.854;2022-11-03T05:57:39;7.70;99.90
3528;DHT22;1778;47.966;7.854;2022-11-03T05:58:42;7.70;99.90
3528;DHT22;1778;47.966;7.854;2022-11-03T05:59:46;7.70;99.90
3528;DHT22;1778;47.966;7.854;2022-11-03T06:00:48;7.70;99.90
3528;DHT22;1778;47.966;7.854;2022-11-03T06:01:49;7.70;99.90
3528;DHT22;1778;47.966;7.854;2022-11-03T06:02:52;7.70;99.90
3528;DHT22;1778;47.966;7.854;2022-11-03T06:04:34;7.70;99.90
3528;DHT22;1778;47.966;7.854;2022-11-03T06:05:37;7.60;99.90
3528;DHT22;1778;47.966;7.854;2022-11-03T06:06:39;7.60;99.90
3528;DHT22;1778;47.966;7.854;2022-11-03T06:07:41;7.60;99.90
3528;DHT22;1778;47.966;7.854;2022-11-03T06:08:42;7.60;99.90
3528;DHT22;1778;47.966;7.854;2022-11-03T06:09:46;7.60;99.90
3528;DHT22;1778;47.966;7.854;2022-11-03T06:10:53;7.70;99.90
3528;DHT22;1778;47.966;7.854;2022-11-03T06:11:56;7.70;99.90
3528;DHT22;1778;47.966;7.854;2022-11-03T06:13:01;7.70;99.90
3528;DHT22;1778;47.966;7.854;2022-11-03T06:14:18;7.70;99.90
3528;DHT22;1778;47.966;7.854;2022-11-03T06:15:30;7.70;99.90
3528;DHT22;1778;47.966;7.854;2022-11-03T06:16:43;7.70;99.90
3528;DHT22;1778;47.966;7.854;2022-11-03T06:17:47;7.70;99.90
3528;DHT22;1778;47.966;7.854;2022-11-03T06:18:49;7.70;99.90
3528;DHT22;1778;47.966;7.854;2022-11-03T06:19:53;7.70;99.90
3528;DHT22;1778;47.966;7.854;2022-11-03T06:20:58;7.70;99.90
3528;DHT22;1778;47.966;7.854;2022-11-03T06:22:14;7.70;99.90
3528;DHT22;1778;47.966;7.854;2022-11-03T06:23:19;7.70;99.90
3528;DHT22;1778;47.966;7.854;2022-11-03T06:24:23;7.70;99.90
3528;DHT22;1778;47.966;7.854;2022-11-03T06:25:32;7.80;99.90
3528;DHT22;1778;47.966;7.854;2022-11-03T06:26:36;7.80;99.90
3528;DHT22;1778;47.966;7.854;2022-11-03T06:27:38;7.80;99.90
3528;DHT22;1778;47.966;7.854;2022-11-03T06:28:39;7.80;99.90
3528;DHT22;1778;47.966;7.854;2022-11-03T06:29:46;7.80;99.90
3528;DHT22;1778;47.966;7.854;2022-11-03T06:30:49;7.90;99.90
3528;DHT22;1778;47.966;7.854;2022-11-03T06:31:55;7.80;99.90
3528;DHT22;1778;47.966;7.854;2022-11-03T06:32:59;7.80;99.90
3528;DHT22;1778;47.966;7.854;2022-11-03T06:34:02;7.80;99.90
3528;DHT22;1778;47.966;7.854;2022-11-03T06:35:04;7.80;99.90
3528;DHT22;1778;47.966;7.854;2022-11-03T06:36:21;7.80;99.90
3528;DHT22;1778;47.966;7.854;2022-11-03T06:37:30;7.80;99.90
3528;DHT22;1778;47.966;7.854;2022-11-03T06:38:33;7.90;99.90
3528;DHT22;1778;47.966;7.854;2022-11-03T06:39:35;7.90;99.90
3528;DHT22;1778;47.966;7.854;2022-11-03T06:40:37;7.90;99.90
3528;DHT22;1778;47.966;7.854;2022-11-03T06:41:39;7.90;99.90
3528;DHT22;1778;47.966;7.854;2022-11-03T06:42:41;7.90;99.90
3528;DHT22;1778;47.966;7.854;2022-11-03T06:43:43;8.00;99.90
3528;DHT22;1778;47.966;7.854;2022-11-03T06:44:47;8.00;99.90
3528;DHT22;1778;47.966;7.854;2022-11-03T06:45:54;8.00;99.90
3528;DHT22;1778;47.966;7.854;2022-11-03T06:47:07;8.00;99.90
3528;DHT22;1778;47.966;7.854;2022-11-03T06:48:21;8.00;99.90
3528;DHT22;1778;47.966;7.854;2022-11-03T06:49:32;8.10;99.90
3528;DHT22;1778;47.966;7.854;2022-11-03T06:50:36;8.10;99.90
3528;DHT22;1778;47.966;7.854;2022-11-03T06:51:44;8.10;99.90
3528;DHT22;1778;47.966;7.854;2022-11-03T06:52:47;8.20;99.90
3528;DHT22;1778;47.966;7.854;2022-11-03T06:53:57;8.20;99.90
3528;DHT22;1778;47.966;7.854;2022-11-03T06:56:25;8.20;99.90
3528;DHT22;1778;47.966;7.854;2022-11-03T06:57:29;8.30;99.90
3528;DHT22;1778;47.966;7.854;2022-11-03T06:58:36;8.30;99.90
3528;DHT22;1778;47.966;7.854;2022-11-03T06:59:38;8.30;99.90
3528;DHT22;1778;47.966;7.854;2022-11-03T07:00:41;8.30;99.90
3528;DHT22;1778;47.966;7.854;2022-11-03T07:01:54;8.40;99.90
3528;DHT22;1778;47.966;7.854;2022-11-03T07:04:12;8.50;99.90
3528;DHT22;1778;47.966;7.854;2022-11-03T07:05:21;8.50;99.90
3528;DHT22;1778;47.966;7.854;2022-11-03T07:06:25;8.40;99.90
3528;DHT22;1778;47.966;7.854;2022-11-03T07:07:27;8.50;99.90
3528;DHT22;1778;47.966;7.854;2022-11-03T07:08:35;8.50;99.90
3528;DHT22;1778;47.966;7.854;2022-11-03T07:09:37;8.50;99.90
3528;DHT22;1778;47.966;7.854;2022-11-03T07:10:39;8.60;99.90
3528;DHT22;1778;47.966;7.854;2022-11-03T07:12:47;8.70;99.90
3528;DHT22;1778;47.966;7.854;2022-11-03T07:13:54;8.70;99.90
3528;DHT22;1778;47.966;7.854;2022-11-03T07:14:57;8.70;99.90
3528;DHT22;1778;47.966;7.854;2022-11-03T07:15:59;8.70;99.90
3528;DHT22;1778;47.966;7.854;2022-11-03T07:17:05;8.70;99.90
3528;DHT22;1778;47.966;7.854;2022-11-03T07:19:33;8.70;99.90
3528;DHT22;1778;47.966;7.854;2022-11-03T07:20:35;8.80;99.90
3528;DHT22;1778;47.966;7.854;2022-11-03T07:22:07;8.80;99.90
3528;DHT22;1778;47.966;7.854;2022-11-03T07:23:15;8.80;99.90
3528;DHT22;1778;47.966;7.854;2022-11-03T07:24:23;8.80;99.90
3528;DHT22;1778;47.966;7.854;2022-11-03T07:25:24;8.80;99.90
3528;DHT22;1778;47.966;7.854;2022-11-03T07:26:26;8.80;99.90
3528;DHT22;1778;47.966;7.854;2022-11-03T07:27:35;8.80;99.90
3528;DHT22;1778;47.966;7.854;2022-11-03T07:28:37;8.80;99.90
3528;DHT22;1778;47.966;7.854;2022-11-03T07:29:40;8.80;99.90
3528;DHT22;1778;47.966;7.854;2022-11-03T07:30:42;8.90;99.90
3528;DHT22;1778;47.966;7.854;2022-11-03T07:31:43;8.90;99.90
3528;DHT22;1778;47.966;7.854;2022-11-03T07:32:48;8.90;99.90
3528;DHT22;1778;47.966;7.854;2022-11-03T07:33:55;8.90;99.90
3528;DHT22;1778;47.966;7.854;2022-11-03T07:35:25;8.90;99.90